Masaryktown, Florida
Current Conditions -  °F | °C
As of 2:53 AM on Wednesday 22 Oct 2014 (Local Time) from KBKV Reporting Station
Haze Haze  
Wind Chill: 64°   Ceiling: Unl
Heat Index: 64°   Visibility: 1mi
Dew Point: 64°   Wind: 0mph
Humidity: 100%   Direction: NA
Pressure: 29.95"   Gusts: NA
Location:  28.4822°N, 82.4333°W
Report Text: KBKV 220653Z AUTO 00000KT 1SM BR CLR 18/18 A2995 RMK AO2 SLP141 T01780178 $
Loading
Personal Weather Stations






























Interactive Weather Map
Tropical Storm Tracking
New forecast layout! Learn more

10-Day Weather Forecast

Advertisements
Track Severe Weather on mobile